< Typhoon 197801 1978 Season Typhoon 197803 >
Typhoon 197802 (OLIVE)
General InformationTrack Information on Google MapsDetailed Wind Information || Disaster Info.ResourceGoogle EarthGE AnimationAtom FeedGeoJSON
Detalied Best Track (Time Zone = UTC)
Year Month Day Hour Lat. Long. Pressure (hPa) Wind (kt) Class Image Chart
1978 4 17 00 6.3 141.2 1006 0 2 -- Chart
1978 4 17 06 7.0 141.0 1006 0 2 -- Chart
1978 4 17 12 7.0 139.0 1006 0 2 -- Chart
1978 4 17 18 8.0 137.0 1006 0 2 -- Chart
1978 4 18 00 8.4 135.4 1004 0 2 -- Chart
1978 4 18 06 8.7 134.2 1002 0 2 -- Chart
1978 4 18 12 9.0 132.9 1000 0 2 -- Chart
1978 4 18 18 9.3 131.5 996 35 3 -- Chart
1978 4 19 00 9.7 130.0 994 35 3 -- Chart
1978 4 19 06 10.1 128.4 992 45 3 -- Chart
1978 4 19 12 10.4 127.3 990 50 4 -- Chart
1978 4 19 18 10.8 126.2 985 50 4 -- Chart
1978 4 20 00 11.3 124.8 985 50 4 -- Chart
1978 4 20 06 11.9 123.5 985 50 4 -- Chart
1978 4 20 12 12.3 122.3 985 50 4 -- Chart
1978 4 20 18 12.8 121.0 990 45 3 -- Chart
1978 4 21 00 13.1 119.7 996 40 3 -- Chart
1978 4 21 06 13.2 118.8 990 45 3 -- Chart
1978 4 21 12 13.5 117.8 985 50 4 -- Chart
1978 4 21 18 13.7 117.0 980 55 4 -- Chart
1978 4 22 00 14.0 116.3 975 60 4 -- Chart
1978 4 22 06 14.3 115.5 970 65 5 -- Chart
1978 4 22 12 14.9 114.7 960 70 5 -- Chart
1978 4 22 18 15.4 114.1 955 70 5 -- Chart
1978 4 23 00 15.8 113.5 955 70 5 -- Chart
1978 4 23 06 16.4 113.1 955 70 5 -- Chart
1978 4 23 12 16.9 113.0 955 70 5 -- Chart
1978 4 23 18 17.6 113.1 955 70 5 -- Chart
1978 4 24 00 18.4 113.7 955 70 5 -- Chart
1978 4 24 06 19.0 114.5 955 70 5 -- Chart
1978 4 24 12 19.7 115.7 960 80 5 -- Chart
1978 4 24 18 20.2 117.2 965 70 5 -- Chart
1978 4 25 00 20.8 118.6 970 70 5 -- Chart
1978 4 25 06 21.0 120.7 975 70 5 -- Chart
1978 4 25 12 21.4 123.2 975 70 5 -- Chart
1978 4 25 18 21.6 125.2 980 60 4 -- Chart
1978 4 26 00 21.8 127.0 980 55 4 -- Chart
1978 4 26 06 21.9 129.2 980 55 4 -- Chart
1978 4 26 12 22.2 131.0 985 55 4 -- Chart
1978 4 26 18 22.7 133.0 990 45 3 -- Chart
1978 4 27 00 23.3 135.0 994 40 3 -- Chart
1978 4 27 06 23.5 136.2 996 40 3 -- Chart
1978 4 27 12 23.5 137.6 996 40 3 -- Chart
1978 4 27 18 23.5 138.8 1000 0 2 -- Chart
1978 4 28 00 23.5 140.0 1004 0 2 -- Chart
1978 4 28 06 23.5 140.8 1006 0 2 -- Chart
1978 4 28 12 23.8 141.0 1008 0 2 -- Chart
1978 4 28 18 24.0 141.0 1010 0 2 -- Chart
1978 4 29 00 24.1 141.0 1012 0 2 -- Chart
1978 4 29 06 24.2 141.0 1012 0 2 -- Chart
1978 4 29 12 24.7 141.0 1012 0 2 -- Chart
1978 4 29 18 25.0 140.5 1012 0 2 -- Chart
1978 4 30 00 25.0 140.0 1012 0 2 -- Chart
1978 4 30 06 24.5 140.5 1012 0 2 -- Chart
1978 4 30 12 25.0 141.0 1012 0 2 -- Chart
1978 4 30 18 25.5 141.0 1012 0 2 -- Chart
1978 5 1 00 26.0 141.0 1012 0 2 -- Chart
Japan Meteorological Agency Best Track Data | Correction Date : 1992-10-21
< Typhoon 197801 1978 Season Typhoon 197803 >

Help